Terminal Aerodrome Forecast
Issued by NWS

Home | Current Version | Previous Version | Graphics & Text | Print | Product List | Glossary On
Versions: 1 2 3 4 5 6 7 8 9 10 11 12 13 14 15 16 17 18
000
FTUS43 KPAH 251741
TAFOWB
TAF
KOWB 251741Z 2518/2618 17013G21KT P6SM -SHRA BKN060
     FM252200 17010G17KT P6SM -SHRA VCTS SCT025 BKN050CB
     FM260000 16006KT P6SM SCT030 BKN070=

USA.gov is the U.S. government's official web portal to all federal, state and local government web resources and services.